Time,TemperatureF,DewpointF,PressureIn,WindDirection,WindDirectionDegrees,WindSpeedMPH,WindSpeedGustMPH,Humidity,HourlyPrecipIn,Conditions,Clouds,dailyrainin,SoftwareType,DateUTC
2013-11-30 00:02:00,28.5,25.9,30.59,NE,37,0.0,0.0,90,0.00,CLR,,0.00,WeatherDisplay:10.37,2013-11-30 06:02:00,
2013-11-30 00:07:00,28.5,25.9,30.59,NE,37,0.0,0.0,90,0.00,CLR,,0.00,WeatherDisplay:10.37,2013-11-30 06:07:00,
2013-11-30 00:12:00,28.5,25.9,30.59,NE,37,0.0,0.0,90,0.00,CLR,,0.00,WeatherDisplay:10.37,2013-11-30 06:12:00,
2013-11-30 00:17:00,28.5,25.9,30.59,NE,37,0.0,0.0,90,0.00,CLR,,0.00,WeatherDisplay:10.37,2013-11-30 06:17:00,
2013-11-30 00:22:00,28.5,25.9,30.59,NE,37,0.0,0.0,90,0.00,CLR,,0.00,WeatherDisplay:10.37,2013-11-30 06:22:00,
2013-11-30 00:27:00,28.4,25.8,30.59,NE,37,0.0,0.0,90,0.00,CLR,,0.00,WeatherDisplay:10.37,2013-11-30 06:27:00,
2013-11-30 00:32:00,28.4,25.8,30.59,NE,37,0.0,0.0,90,0.00,CLR,,0.00,WeatherDisplay:10.37,2013-11-30 06:32:00,
2013-11-30 00:37:00,28.2,25.6,30.59,NE,37,0.0,0.0,90,0.00,CLR,,0.00,WeatherDisplay:10.37,2013-11-30 06:37:00,
2013-11-30 00:42:00,28.1,25.5,30.60,NE,37,0.0,0.0,90,0.00,CLR,,0.00,WeatherDisplay:10.37,2013-11-30 06:42:00,
2013-11-30 00:47:00,28.1,25.5,30.60,NE,37,0.0,0.0,90,0.00,CLR,,0.00,WeatherDisplay:10.37,2013-11-30 06:47:00,
2013-11-30 00:52:00,27.9,25.3,30.60,NE,37,0.0,0.0,90,0.00,CLR,,0.00,WeatherDisplay:10.37,2013-11-30 06:52:00,
2013-11-30 00:57:00,27.8,25.5,30.60,NE,37,0.0,0.0,91,0.00,CLR,,0.00,WeatherDisplay:10.37,2013-11-30 06:57:00,
2013-11-30 01:02:00,27.8,25.5,30.60,NE,37,0.0,0.0,91,0.00,CLR,,0.00,WeatherDisplay:10.37,2013-11-30 07:02:00,
2013-11-30 01:07:00,27.8,25.5,30.60,NE,37,0.0,0.0,91,0.00,CLR,,0.00,WeatherDisplay:10.37,2013-11-30 07:07:00,
2013-11-30 01:12:00,27.6,25.3,30.60,NE,37,0.0,0.0,91,0.00,CLR,,0.00,WeatherDisplay:10.37,2013-11-30 07:12:00,
2013-11-30 01:17:00,27.5,25.2,30.60,NE,37,0.0,0.0,91,0.00,CLR,,0.00,WeatherDisplay:10.37,2013-11-30 07:17:00,
2013-11-30 01:22:00,27.5,25.2,30.60,NE,37,0.0,0.0,91,0.00,CLR,,0.00,WeatherDisplay:10.37,2013-11-30 07:22:00,
2013-11-30 01:27:00,27.3,25.0,30.60,NE,37,0.0,0.0,91,0.00,CLR,,0.00,WeatherDisplay:10.37,2013-11-30 07:27:00,
2013-11-30 01:32:00,27.3,25.0,30.60,NE,37,0.0,0.0,91,0.00,CLR,,0.00,WeatherDisplay:10.37,2013-11-30 07:32:00,
2013-11-30 01:37:00,27.2,24.9,30.60,NE,37,0.0,0.0,91,0.00,CLR,,0.00,WeatherDisplay:10.37,2013-11-30 07:37:00,
2013-11-30 01:42:00,27.2,24.9,30.60,NE,37,0.0,0.0,91,0.00,CLR,,0.00,WeatherDisplay:10.37,2013-11-30 07:42:00,
2013-11-30 01:47:00,27.0,24.7,30.60,NE,37,0.0,0.0,91,0.00,CLR,,0.00,WeatherDisplay:10.37,2013-11-30 07:47:00,
2013-11-30 01:52:00,27.0,24.7,30.60,NE,37,0.0,0.0,91,0.00,CLR,,0.00,WeatherDisplay:10.37,2013-11-30 07:52:00,
2013-11-30 01:57:00,26.9,24.6,30.59,NE,37,0.0,0.0,91,0.00,CLR,,0.00,WeatherDisplay:10.37,2013-11-30 07:57:00,
2013-11-30 02:02:00,26.9,24.6,30.59,NE,37,0.0,0.0,91,0.00,CLR,,0.00,WeatherDisplay:10.37,2013-11-30 08:02:00,
2013-11-30 02:07:00,26.7,24.4,30.60,NE,37,0.0,0.0,91,0.00,CLR,,0.00,WeatherDisplay:10.37,2013-11-30 08:07:00,
2013-11-30 02:12:00,26.6,24.3,30.59,NE,37,0.0,0.0,91,0.00,CLR,,0.00,WeatherDisplay:10.37,2013-11-30 08:12:00,
2013-11-30 02:17:00,26.6,24.3,30.59,NE,37,0.0,0.0,91,0.00,CLR,,0.00,WeatherDisplay:10.37,2013-11-30 08:17:00,
2013-11-30 02:22:00,26.6,24.3,30.59,NE,37,0.0,0.0,91,0.00,CLR,,0.00,WeatherDisplay:10.37,2013-11-30 08:22:00,
2013-11-30 02:27:00,26.6,24.6,30.59,NE,37,0.0,0.0,92,0.00,CLR,,0.00,WeatherDisplay:10.37,2013-11-30 08:27:00,
2013-11-30 02:32:00,26.7,24.7,30.60,NE,37,0.0,0.0,92,0.00,CLR,,0.00,WeatherDisplay:10.37,2013-11-30 08:32:00,
2013-11-30 02:37:00,26.7,24.7,30.59,NE,37,0.0,0.0,92,0.00,CLR,,0.00,WeatherDisplay:10.37,2013-11-30 08:37:00,
2013-11-30 02:42:00,26.6,24.6,30.59,NE,37,0.0,0.0,92,0.00,CLR,,0.00,WeatherDisplay:10.37,2013-11-30 08:42:00,
2013-11-30 02:47:00,26.6,24.6,30.59,NE,37,0.0,0.0,92,0.00,CLR,,0.00,WeatherDisplay:10.37,2013-11-30 08:47:00,
2013-11-30 02:52:00,26.4,24.4,30.60,NE,37,0.0,0.0,92,0.00,CLR,,0.00,WeatherDisplay:10.37,2013-11-30 08:52:00,
2013-11-30 02:57:00,26.4,24.4,30.60,NE,37,0.0,0.0,92,0.00,CLR,,0.00,WeatherDisplay:10.37,2013-11-30 08:57:00,
2013-11-30 03:02:00,26.3,24.3,30.60,NE,37,0.0,0.0,92,0.00,CLR,,0.00,WeatherDisplay:10.37,2013-11-30 09:02:00,
2013-11-30 03:07:00,26.3,24.3,30.60,NE,37,0.0,0.0,92,0.00,CLR,,0.00,WeatherDisplay:10.37,2013-11-30 09:07:00,
2013-11-30 03:12:00,26.3,24.3,30.60,NE,37,0.0,0.0,92,0.00,CLR,,0.00,WeatherDisplay:10.37,2013-11-30 09:12:00,
2013-11-30 03:17:00,26.3,24.3,30.60,NE,37,0.0,0.0,92,0.00,CLR,,0.00,WeatherDisplay:10.37,2013-11-30 09:17:00,
2013-11-30 03:22:00,26.1,24.1,30.60,NE,37,0.0,0.0,92,0.00,CLR,,0.00,WeatherDisplay:10.37,2013-11-30 09:22:00,
2013-11-30 03:27:00,26.1,24.1,30.60,NE,37,0.0,0.0,92,0.00,CLR,,0.00,WeatherDisplay:10.37,2013-11-30 09:27:00,
2013-11-30 03:32:00,26.1,24.1,30.60,NE,37,0.0,0.0,92,0.00,CLR,,0.00,WeatherDisplay:10.37,2013-11-30 09:32:00,
2013-11-30 03:37:00,26.1,24.1,30.60,NE,37,0.0,0.0,92,0.00,CLR,,0.00,WeatherDisplay:10.37,2013-11-30 09:37:00,
2013-11-30 03:42:00,26.1,24.1,30.60,NE,37,0.0,0.0,92,0.00,CLR,,0.00,WeatherDisplay:10.37,2013-11-30 09:42:00,
2013-11-30 03:47:00,26.1,24.1,30.60,NE,37,0.0,0.0,92,0.00,CLR,,0.00,WeatherDisplay:10.37,2013-11-30 09:47:00,
2013-11-30 03:52:00,26.1,24.1,30.60,NE,37,0.0,0.0,92,0.00,CLR,,0.00,WeatherDisplay:10.37,2013-11-30 09:52:00,
2013-11-30 03:57:00,26.1,24.1,30.60,NE,37,0.0,0.0,92,0.00,CLR,,0.00,WeatherDisplay:10.37,2013-11-30 09:57:00,
2013-11-30 04:02:00,26.1,24.1,30.60,NE,37,0.0,0.0,92,0.00,CLR,,0.00,WeatherDisplay:10.37,2013-11-30 10:02:00,
2013-11-30 04:07:00,26.1,24.1,30.61,NE,37,0.0,0.0,92,0.00,CLR,,0.00,WeatherDisplay:10.37,2013-11-30 10:07:00,
2013-11-30 04:12:00,26.0,24.0,30.60,NE,37,0.0,0.0,92,0.00,CLR,,0.00,WeatherDisplay:10.37,2013-11-30 10:12:00,
2013-11-30 04:17:00,26.0,24.0,30.61,NE,37,0.0,0.0,92,0.00,CLR,,0.00,WeatherDisplay:10.37,2013-11-30 10:17:00,
2013-11-30 04:22:00,26.0,24.0,30.60,NE,37,0.0,0.0,92,0.00,CLR,,0.00,WeatherDisplay:10.37,2013-11-30 10:22:00,
2013-11-30 04:27:00,25.8,23.8,30.61,NE,37,0.0,0.0,92,0.00,CLR,,0.00,WeatherDisplay:10.37,2013-11-30 10:27:00,
2013-11-30 04:32:00,25.7,23.7,30.61,NE,37,0.0,0.0,92,0.00,CLR,,0.00,WeatherDisplay:10.37,2013-11-30 10:32:00,
2013-11-30 04:37:00,25.7,23.7,30.61,NE,37,0.0,0.0,92,0.00,CLR,,0.00,WeatherDisplay:10.37,2013-11-30 10:37:00,
2013-11-30 04:42:00,25.7,23.7,30.61,NE,37,0.0,0.0,92,0.00,CLR,,0.00,WeatherDisplay:10.37,2013-11-30 10:42:00,
2013-11-30 04:47:00,25.7,23.7,30.61,NE,37,0.0,0.0,92,0.00,CLR,,0.00,WeatherDisplay:10.37,2013-11-30 10:47:00,
2013-11-30 04:52:00,25.6,23.6,30.61,NE,37,0.0,0.0,92,0.00,CLR,,0.00,WeatherDisplay:10.37,2013-11-30 10:52:00,
2013-11-30 04:57:00,25.6,23.6,30.61,NE,37,0.0,0.0,92,0.00,CLR,,0.00,WeatherDisplay:10.37,2013-11-30 10:57:00,
2013-11-30 05:02:00,25.4,23.4,30.61,NE,37,0.0,0.0,92,0.00,CLR,,0.00,WeatherDisplay:10.37,2013-11-30 11:02:00,
2013-11-30 05:07:00,25.4,23.4,30.62,NE,37,0.0,0.0,92,0.00,CLR,,0.00,WeatherDisplay:10.37,2013-11-30 11:07:00,
2013-11-30 05:12:00,25.3,23.3,30.62,NE,37,0.0,0.0,92,0.00,CLR,,0.00,WeatherDisplay:10.37,2013-11-30 11:12:00,
2013-11-30 05:17:00,25.3,23.3,30.62,NE,37,0.0,0.0,92,0.00,CLR,,0.00,WeatherDisplay:10.37,2013-11-30 11:17:00,
2013-11-30 05:22:00,25.1,23.1,30.62,NE,37,0.0,0.0,92,0.00,CLR,,0.00,WeatherDisplay:10.37,2013-11-30 11:22:00,
2013-11-30 05:27:00,25.1,23.1,30.62,NE,37,0.0,0.0,92,0.00,CLR,,0.00,WeatherDisplay:10.37,2013-11-30 11:27:00,
2013-11-30 05:32:00,25.1,23.1,30.62,NE,37,0.0,0.0,92,0.00,CLR,,0.00,WeatherDisplay:10.37,2013-11-30 11:32:00,
2013-11-30 05:37:00,25.1,23.1,30.62,NE,37,0.0,0.0,92,0.00,CLR,,0.00,WeatherDisplay:10.37,2013-11-30 11:37:00,
2013-11-30 05:42:00,25.1,23.1,30.62,NE,37,0.0,0.0,92,0.00,CLR,,0.00,WeatherDisplay:10.37,2013-11-30 11:42:00,
2013-11-30 05:47:00,25.1,23.1,30.62,NE,37,0.0,0.0,92,0.00,CLR,,0.00,WeatherDisplay:10.37,2013-11-30 11:47:00,
2013-11-30 05:52:00,25.0,23.0,30.63,NE,37,0.0,0.0,92,0.00,CLR,,0.00,WeatherDisplay:10.37,2013-11-30 11:52:00,
2013-11-30 05:57:00,25.0,23.0,30.63,NE,37,0.0,0.0,92,0.00,CLR,,0.00,WeatherDisplay:10.37,2013-11-30 11:57:00,
2013-11-30 06:03:00,25.0,23.0,30.63,NE,37,0.0,0.0,92,0.00,CLR,,0.00,WeatherDisplay:10.37,2013-11-30 12:03:00,
2013-11-30 06:08:00,25.0,23.0,30.63,NE,37,0.0,0.0,92,0.00,CLR,,0.00,WeatherDisplay:10.37,2013-11-30 12:08:00,
2013-11-30 06:13:00,24.8,22.8,30.63,NE,37,0.0,0.0,92,0.00,CLR,,0.00,WeatherDisplay:10.37,2013-11-30 12:13:00,
2013-11-30 06:18:00,24.8,22.8,30.63,NE,37,0.0,0.0,92,0.00,CLR,,0.00,WeatherDisplay:10.37,2013-11-30 12:18:00,
2013-11-30 06:23:00,24.8,22.8,30.63,NE,37,0.0,0.0,92,0.00,CLR,,0.00,WeatherDisplay:10.37,2013-11-30 12:23:00,
2013-11-30 06:28:00,24.8,22.8,30.63,NE,37,0.0,0.0,92,0.00,CLR,,0.00,WeatherDisplay:10.37,2013-11-30 12:28:00,
2013-11-30 06:33:00,24.7,22.7,30.64,NE,37,0.0,0.0,92,0.00,CLR,,0.00,WeatherDisplay:10.37,2013-11-30 12:33:00,
2013-11-30 06:38:00,24.7,22.7,30.64,NE,37,0.0,0.0,92,0.00,CLR,,0.00,WeatherDisplay:10.37,2013-11-30 12:38:00,
2013-11-30 06:43:00,24.7,22.7,30.64,NE,37,0.0,0.0,92,0.00,CLR,,0.00,WeatherDisplay:10.37,2013-11-30 12:43:00,
2013-11-30 06:48:00,24.8,22.8,30.64,NE,37,0.0,0.0,92,0.00,CLR,,0.00,WeatherDisplay:10.37,2013-11-30 12:48:00,
2013-11-30 06:53:00,24.8,22.8,30.64,NE,37,0.0,0.0,92,0.00,CLR,,0.00,WeatherDisplay:10.37,2013-11-30 12:53:00,
2013-11-30 06:58:00,24.8,22.8,30.64,NE,37,0.0,0.0,92,0.00,CLR,,0.00,WeatherDisplay:10.37,2013-11-30 12:58:00,
2013-11-30 07:03:00,25.0,23.0,30.64,NE,37,0.0,0.0,92,0.00,CLR,,0.00,WeatherDisplay:10.37,2013-11-30 13:03:00,
2013-11-30 07:08:00,25.1,23.4,30.65,NE,37,0.0,0.0,93,0.00,CLR,,0.00,WeatherDisplay:10.37,2013-11-30 13:08:00,
2013-11-30 07:13:00,25.3,23.6,30.65,NE,37,0.0,0.0,93,0.00,CLR,,0.00,WeatherDisplay:10.37,2013-11-30 13:13:00,
2013-11-30 07:18:00,25.4,23.7,30.65,NE,37,0.0,0.0,93,0.00,CLR,,0.00,WeatherDisplay:10.37,2013-11-30 13:18:00,
2013-11-30 07:23:00,26.0,24.3,30.65,NE,37,0.0,0.0,93,0.00,CLR,,0.00,WeatherDisplay:10.37,2013-11-30 13:23:00,
2013-11-30 07:28:00,26.4,24.7,30.65,NE,37,0.0,0.0,93,0.00,CLR,,0.00,WeatherDisplay:10.37,2013-11-30 13:28:00,
2013-11-30 07:33:00,27.3,25.8,30.65,NE,37,0.0,0.0,94,0.00,CLR,,0.00,WeatherDisplay:10.37,2013-11-30 13:33:00,
2013-11-30 07:38:00,27.9,26.4,30.65,NE,37,0.0,0.0,94,0.00,CLR,,0.00,WeatherDisplay:10.37,2013-11-30 13:38:00,
2013-11-30 07:43:00,28.4,26.9,30.65,NE,37,0.0,0.0,94,0.00,CLR,,0.00,WeatherDisplay:10.37,2013-11-30 13:43:00,
2013-11-30 07:48:00,28.7,27.2,30.65,NE,37,0.0,0.0,94,0.00,CLR,,0.00,WeatherDisplay:10.37,2013-11-30 13:48:00,
2013-11-30 07:53:00,29.1,27.6,30.66,NE,37,0.0,0.0,94,0.00,CLR,,0.00,WeatherDisplay:10.37,2013-11-30 13:53:00,
2013-11-30 07:58:00,29.8,28.3,30.65,NE,37,0.0,0.0,94,0.00,CLR,,0.00,WeatherDisplay:10.37,2013-11-30 13:58:00,
2013-11-30 08:03:00,31.0,29.5,30.65,NE,37,0.0,0.0,94,0.00,CLR,,0.00,WeatherDisplay:10.37,2013-11-30 14:03:00,
2013-11-30 08:08:00,32.1,30.6,30.66,NE,37,0.0,0.0,94,0.00,CLR,,0.00,WeatherDisplay:10.37,2013-11-30 14:08:00,
2013-11-30 08:13:00,32.9,31.4,30.66,NE,37,0.0,0.0,94,0.00,CLR,,0.00,WeatherDisplay:10.37,2013-11-30 14:13:00,
2013-11-30 08:18:00,33.8,32.0,30.66,NE,37,0.0,0.0,93,0.00,CLR,,0.00,WeatherDisplay:10.37,2013-11-30 14:18:00,
2013-11-30 08:23:00,35.3,33.2,30.65,NE,37,0.0,0.0,92,0.00,CLR,,0.00,WeatherDisplay:10.37,2013-11-30 14:23:00,
2013-11-30 08:28:00,36.2,32.7,30.65,NE,37,0.0,0.0,87,0.00,CLR,,0.00,WeatherDisplay:10.37,2013-11-30 14:28:00,
2013-11-30 08:33:00,37.0,32.9,30.65,NE,37,0.0,0.0,85,0.00,CLR,,0.00,WeatherDisplay:10.37,2013-11-30 14:33:00,
2013-11-30 08:38:00,38.0,33.3,30.65,NE,37,0.0,0.0,83,0.00,CLR,,0.00,WeatherDisplay:10.37,2013-11-30 14:38:00,
2013-11-30 08:43:00,39.1,33.1,30.65,NE,37,0.0,0.0,79,0.00,CLR,,0.00,WeatherDisplay:10.37,2013-11-30 14:43:00,
2013-11-30 08:48:00,39.8,33.2,30.65,WSW,245,0.0,0.0,77,0.00,CLR,,0.00,WeatherDisplay:10.37,2013-11-30 14:48:00,
2013-11-30 08:53:00,40.2,33.2,30.65,WSW,245,0.0,0.0,76,0.00,CLR,,0.00,WeatherDisplay:10.37,2013-11-30 14:53:00,
2013-11-30 08:58:00,40.9,33.2,30.65,WSW,245,0.0,0.0,74,0.00,CLR,,0.00,WeatherDisplay:10.37,2013-11-30 14:58:00,
2013-11-30 09:03:00,41.3,33.0,30.65,WSW,246,0.0,0.0,72,0.00,CLR,,0.00,WeatherDisplay:10.37,2013-11-30 15:03:00,
2013-11-30 09:08:00,41.6,33.2,30.64,WSW,238,0.0,0.0,72,0.00,CLR,,0.00,WeatherDisplay:10.37,2013-11-30 15:08:00,
2013-11-30 09:13:00,42.2,33.5,30.64,WSW,238,0.0,0.0,71,0.00,CLR,,0.00,WeatherDisplay:10.37,2013-11-30 15:13:00,
2013-11-30 09:18:00,42.5,33.4,30.64,WSW,238,0.0,0.0,70,0.00,CLR,,0.00,WeatherDisplay:10.37,2013-11-30 15:18:00,
2013-11-30 09:23:00,42.8,33.7,30.64,WSW,238,1.2,1.2,70,0.00,CLR,,0.00,WeatherDisplay:10.37,2013-11-30 15:23:00,
2013-11-30 09:28:00,43.2,34.4,30.63,WSW,238,0.0,0.0,71,0.00,CLR,,0.00,WeatherDisplay:10.37,2013-11-30 15:28:00,
2013-11-30 09:33:00,43.8,33.9,30.64,WSW,238,0.0,0.0,68,0.00,CLR,,0.00,WeatherDisplay:10.37,2013-11-30 15:33:00,
2013-11-30 09:38:00,44.1,33.8,30.63,WSW,238,0.0,0.0,67,0.00,CLR,,0.00,WeatherDisplay:10.37,2013-11-30 15:38:00,
2013-11-30 09:43:00,44.6,33.9,30.63,WSW,238,1.2,0.0,66,0.00,CLR,,0.00,WeatherDisplay:10.37,2013-11-30 15:43:00,
2013-11-30 09:48:00,45.5,34.8,30.63,WSW,238,1.2,0.0,66,0.00,CLR,,0.00,WeatherDisplay:10.37,2013-11-30 15:48:00,
2013-11-30 09:53:00,46.2,33.9,30.63,WSW,238,0.0,0.0,62,0.00,CLR,,0.00,WeatherDisplay:10.37,2013-11-30 15:53:00,
2013-11-30 09:58:00,47.1,32.6,30.63,WSW,238,0.0,0.0,57,0.00,CLR,,0.00,WeatherDisplay:10.37,2013-11-30 15:58:00,
2013-11-30 10:03:00,48.2,30.4,30.62,WSW,238,0.0,0.0,50,0.00,CLR,,0.00,WeatherDisplay:10.37,2013-11-30 16:03:00,
2013-11-30 10:08:00,49.1,30.2,30.62,WSW,238,0.0,0.0,48,0.00,CLR,,0.00,WeatherDisplay:10.37,2013-11-30 16:08:00,
2013-11-30 10:13:00,49.2,29.8,30.62,SW,234,1.2,0.0,47,0.00,CLR,,0.00,WeatherDisplay:10.37,2013-11-30 16:13:00,
2013-11-30 10:18:00,48.9,29.0,30.62,ENE,59,1.2,0.0,46,0.00,CLR,,0.00,WeatherDisplay:10.37,2013-11-30 16:18:00,
2013-11-30 10:23:00,49.1,29.7,30.62,ENE,59,0.0,0.0,47,0.00,CLR,,0.00,WeatherDisplay:10.37,2013-11-30 16:23:00,
2013-11-30 10:28:00,49.9,29.9,30.61,NE,38,2.0,2.0,46,0.00,CLR,,0.00,WeatherDisplay:10.37,2013-11-30 16:28:00,
2013-11-30 10:33:00,50.4,30.4,30.61,North,9,1.2,0.0,46,0.00,CLR,,0.00,WeatherDisplay:10.37,2013-11-30 16:33:00,
2013-11-30 10:38:00,50.1,28.4,30.61,North,10,0.0,0.0,43,0.00,CLR,,0.00,WeatherDisplay:10.37,2013-11-30 16:38:00,
2013-11-30 10:43:00,50.2,30.2,30.61,North,10,0.0,0.0,46,0.00,CLR,,0.00,WeatherDisplay:10.37,2013-11-30 16:43:00,
2013-11-30 10:48:00,50.7,28.4,30.60,North,10,0.0,0.0,42,0.00,CLR,,0.00,WeatherDisplay:10.37,2013-11-30 16:48:00,
2013-11-30 10:53:00,51.1,29.4,30.59,North,9,3.0,3.0,43,0.00,CLR,,0.00,WeatherDisplay:10.37,2013-11-30 16:53:00,
2013-11-30 10:58:00,51.9,31.2,30.59,North,10,3.5,0.0,45,0.00,CLR,,0.00,WeatherDisplay:10.37,2013-11-30 16:58:00,
2013-11-30 11:03:00,52.2,28.6,30.59,North,10,4.0,4.0,40,0.00,CLR,,0.00,WeatherDisplay:10.37,2013-11-30 17:03:00,
2013-11-30 11:08:00,52.5,30.0,30.58,North,10,1.2,0.0,42,0.00,CLR,,0.00,WeatherDisplay:10.37,2013-11-30 17:08:00,
2013-11-30 11:13:00,53.1,29.4,30.58,North,10,1.2,0.0,40,0.00,CLR,,0.00,WeatherDisplay:10.37,2013-11-30 17:13:00,
2013-11-30 11:18:00,53.1,28.1,30.58,North,10,0.0,0.0,38,0.00,CLR,,0.00,WeatherDisplay:10.37,2013-11-30 17:18:00,
2013-11-30 11:23:00,53.8,28.1,30.57,North,10,0.0,0.0,37,0.00,CLR,,0.00,WeatherDisplay:10.37,2013-11-30 17:23:00,
2013-11-30 11:28:00,53.5,29.7,30.56,North,11,0.0,0.0,40,0.00,CLR,,0.00,WeatherDisplay:10.37,2013-11-30 17:28:00,
2013-11-30 11:33:00,53.8,28.8,30.56,North,11,1.2,0.0,38,0.00,CLR,,0.00,WeatherDisplay:10.37,2013-11-30 17:33:00,
2013-11-30 11:38:00,54.1,27.7,30.56,North,11,0.0,0.0,36,0.00,CLR,,0.00,WeatherDisplay:10.37,2013-11-30 17:38:00,
2013-11-30 11:43:00,54.5,29.4,30.55,North,11,0.0,0.0,38,0.00,CLR,,0.00,WeatherDisplay:10.37,2013-11-30 17:43:00,
2013-11-30 11:48:00,54.7,28.2,30.55,North,11,1.2,0.0,36,0.00,CLR,,0.00,WeatherDisplay:10.37,2013-11-30 17:48:00,
2013-11-30 11:53:00,54.7,29.6,30.56,North,11,0.0,0.0,38,0.00,CLR,,0.00,WeatherDisplay:10.37,2013-11-30 17:53:00,
2013-11-30 11:58:00,54.5,28.7,30.55,North,11,0.0,0.0,37,0.00,CLR,,0.00,WeatherDisplay:10.37,2013-11-30 17:58:00,
2013-11-30 12:03:00,54.4,28.0,30.55,NW,309,0.0,0.0,36,0.00,CLR,,0.00,WeatherDisplay:10.37,2013-11-30 18:03:00,
2013-11-30 12:08:00,54.7,28.9,30.55,NW,325,1.2,0.0,37,0.00,CLR,,0.00,WeatherDisplay:10.37,2013-11-30 18:08:00,
2013-11-30 12:13:00,54.4,27.3,30.53,NNW,341,0.0,0.0,35,0.00,CLR,,0.00,WeatherDisplay:10.37,2013-11-30 18:13:00,
2013-11-30 12:18:00,54.7,28.2,30.53,NNW,340,1.0,0.0,36,0.00,CLR,,0.00,WeatherDisplay:10.37,2013-11-30 18:18:00,
2013-11-30 12:23:00,55.3,26.7,30.53,NNW,338,0.0,0.0,33,0.00,CLR,,0.00,WeatherDisplay:10.37,2013-11-30 18:23:00,
2013-11-30 12:28:00,55.7,29.8,30.52,NNW,338,0.0,0.0,37,0.00,CLR,,0.00,WeatherDisplay:10.37,2013-11-30 18:28:00,
2013-11-30 12:33:00,56.0,27.3,30.52,NNW,338,1.2,0.0,33,0.00,CLR,,0.00,WeatherDisplay:10.37,2013-11-30 18:33:00,
2013-11-30 12:38:00,56.0,28.7,30.52,SW,221,1.0,1.0,35,0.00,CLR,,0.00,WeatherDisplay:10.37,2013-11-30 18:38:00,
2013-11-30 12:43:00,56.2,27.4,30.51,WSW,237,2.3,2.3,33,0.00,CLR,,0.00,WeatherDisplay:10.37,2013-11-30 18:43:00,
2013-11-30 12:48:00,56.3,29.0,30.51,SW,227,0.0,0.0,35,0.00,CLR,,0.00,WeatherDisplay:10.37,2013-11-30 18:48:00,
2013-11-30 12:53:00,56.2,26.7,30.51,SSE,166,1.2,0.0,32,0.00,CLR,,0.00,WeatherDisplay:10.37,2013-11-30 18:53:00,
2013-11-30 12:58:00,56.5,29.1,30.50,SSE,166,1.2,0.0,35,0.00,CLR,,0.00,WeatherDisplay:10.37,2013-11-30 18:58:00,
2013-11-30 13:03:00,56.7,27.1,30.50,SSE,166,1.2,0.0,32,0.00,CLR,,0.00,WeatherDisplay:10.37,2013-11-30 19:03:00,
2013-11-30 13:08:00,57.3,26.9,30.50,SW,232,1.2,1.3,31,0.00,CLR,,0.00,WeatherDisplay:10.37,2013-11-30 19:08:00,
2013-11-30 13:13:00,57.5,29.3,30.50,SSE,153,0.0,0.0,34,0.00,CLR,,0.00,WeatherDisplay:10.37,2013-11-30 19:13:00,
2013-11-30 13:18:00,57.6,28.7,30.49,SSE,153,0.0,0.0,33,0.00,CLR,,0.00,WeatherDisplay:10.37,2013-11-30 19:18:00,
2013-11-30 13:23:00,58.1,29.1,30.48,West,279,1.2,0.0,33,0.00,CLR,,0.00,WeatherDisplay:10.37,2013-11-30 19:23:00,
2013-11-30 13:28:00,58.7,29.6,30.48,West,279,0.0,0.0,33,0.00,CLR,,0.00,WeatherDisplay:10.37,2013-11-30 19:28:00,
2013-11-30 13:33:00,58.9,29.8,30.48,West,279,1.0,0.0,33,0.00,CLR,,0.00,WeatherDisplay:10.37,2013-11-30 19:33:00,
2013-11-30 13:38:00,58.4,28.6,30.48,WSW,258,3.5,3.5,32,0.00,CLR,,0.00,WeatherDisplay:10.37,2013-11-30 19:38:00,
2013-11-30 13:43:00,58.6,29.6,30.47,West,278,1.2,0.0,33,0.00,CLR,,0.00,WeatherDisplay:10.37,2013-11-30 19:43:00,
2013-11-30 13:48:00,58.6,28.0,30.47,West,278,1.2,1.2,31,0.00,CLR,,0.00,WeatherDisplay:10.37,2013-11-30 19:48:00,
2013-11-30 13:53:00,58.7,28.9,30.47,West,278,0.0,0.0,32,0.00,CLR,,0.00,WeatherDisplay:10.37,2013-11-30 19:53:00,
2013-11-30 13:58:00,58.9,28.3,30.46,West,271,0.0,0.0,31,0.00,CLR,,0.00,WeatherDisplay:10.37,2013-11-30 19:58:00,
2013-11-30 14:03:00,58.9,29.8,30.45,West,271,0.0,0.0,33,0.00,CLR,,0.00,WeatherDisplay:10.37,2013-11-30 20:03:00,
2013-11-30 14:08:00,58.9,28.3,30.45,West,271,1.2,1.2,31,0.00,CLR,,0.00,WeatherDisplay:10.37,2013-11-30 20:08:00,
2013-11-30 14:13:00,59.0,28.4,30.45,West,271,0.0,0.0,31,0.00,CLR,,0.00,WeatherDisplay:10.37,2013-11-30 20:13:00,
2013-11-30 14:18:00,59.3,27.8,30.45,West,271,0.0,0.0,30,0.00,CLR,,0.00,WeatherDisplay:10.37,2013-11-30 20:18:00,
2013-11-30 14:23:00,59.6,27.3,30.45,South,184,2.3,2.3,29,0.00,CLR,,0.00,WeatherDisplay:10.37,2013-11-30 20:23:00,
2013-11-30 14:28:00,59.2,26.9,30.45,South,169,0.0,0.0,29,0.00,CLR,,0.00,WeatherDisplay:10.37,2013-11-30 20:28:00,
2013-11-30 14:33:00,59.3,26.2,30.45,South,178,0.0,0.0,28,0.00,CLR,,0.00,WeatherDisplay:10.37,2013-11-30 20:33:00,
2013-11-30 14:38:00,58.6,26.4,30.45,South,177,0.0,0.0,29,0.00,CLR,,0.00,WeatherDisplay:10.37,2013-11-30 20:38:00,
2013-11-30 14:43:00,58.4,27.1,30.45,South,177,0.0,0.0,30,0.00,CLR,,0.00,WeatherDisplay:10.37,2013-11-30 20:43:00,
2013-11-30 14:48:00,58.1,26.0,30.45,South,177,0.0,0.0,29,0.00,CLR,,0.00,WeatherDisplay:10.37,2013-11-30 20:48:00,
2013-11-30 14:53:00,57.6,25.5,30.44,SSW,209,0.0,0.0,29,0.00,CLR,,0.00,WeatherDisplay:10.37,2013-11-30 20:53:00,
2013-11-30 14:58:00,57.3,26.9,30.44,SSW,209,0.0,0.0,31,0.00,CLR,,0.00,WeatherDisplay:10.37,2013-11-30 20:58:00,
2013-11-30 15:03:00,56.9,25.7,30.44,SSW,209,0.0,0.0,30,0.00,CLR,,0.00,WeatherDisplay:10.37,2013-11-30 21:03:00,
2013-11-30 15:08:00,56.3,28.3,30.44,SSW,209,0.0,0.0,34,0.00,CLR,,0.00,WeatherDisplay:10.37,2013-11-30 21:08:00,
2013-11-30 15:13:00,55.9,27.2,30.44,SSW,209,0.0,0.0,33,0.00,CLR,,0.00,WeatherDisplay:10.37,2013-11-30 21:13:00,
2013-11-30 15:18:00,55.3,27.4,30.44,SSW,209,0.0,0.0,34,0.00,CLR,,0.00,WeatherDisplay:10.37,2013-11-30 21:18:00,
2013-11-30 15:23:00,55.0,25.6,30.44,SSW,209,1.2,1.2,32,0.00,CLR,,0.00,WeatherDisplay:10.37,2013-11-30 21:23:00,
2013-11-30 15:28:00,54.7,26.8,30.44,SSW,205,0.0,0.0,34,0.00,CLR,,0.00,WeatherDisplay:10.37,2013-11-30 21:28:00,
2013-11-30 15:33:00,54.4,28.0,30.44,SSW,205,0.0,0.0,36,0.00,CLR,,0.00,WeatherDisplay:10.37,2013-11-30 21:33:00,
2013-11-30 15:38:00,54.1,27.0,30.44,SSW,205,0.0,0.0,35,0.00,CLR,,0.00,WeatherDisplay:10.37,2013-11-30 21:38:00,
2013-11-30 15:43:00,53.8,27.4,30.44,SW,225,2.3,2.3,36,0.00,CLR,,0.00,WeatherDisplay:10.37,2013-11-30 21:43:00,
2013-11-30 15:48:00,53.5,27.8,30.44,SW,225,0.0,0.0,37,0.00,CLR,,0.00,WeatherDisplay:10.37,2013-11-30 21:48:00,
2013-11-30 15:53:00,53.2,26.9,30.44,SW,225,0.0,0.0,36,0.00,CLR,,0.00,WeatherDisplay:10.37,2013-11-30 21:53:00,
2013-11-30 15:58:00,52.9,28.0,30.44,SW,225,0.0,0.0,38,0.00,CLR,,0.00,WeatherDisplay:10.37,2013-11-30 21:58:00,
2013-11-30 16:03:00,52.5,28.2,30.44,SW,225,0.0,0.0,39,0.00,CLR,,0.00,WeatherDisplay:10.37,2013-11-30 22:03:00,
2013-11-30 16:08:00,52.2,28.0,30.44,SW,225,0.0,0.0,39,0.00,CLR,,0.00,WeatherDisplay:10.37,2013-11-30 22:08:00,
2013-11-30 16:13:00,51.7,28.1,30.44,SW,225,0.0,0.0,40,0.00,CLR,,0.00,WeatherDisplay:10.37,2013-11-30 22:13:00,
2013-11-30 16:19:00,51.0,28.7,30.44,SW,225,0.0,0.0,42,0.00,CLR,,0.00,WeatherDisplay:10.37,2013-11-30 22:19:00,
2013-11-30 16:24:00,50.4,29.3,30.44,SW,225,0.0,0.0,44,0.00,CLR,,0.00,WeatherDisplay:10.37,2013-11-30 22:24:00,
2013-11-30 16:29:00,49.8,28.7,30.44,SW,225,0.0,0.0,44,0.00,CLR,,0.00,WeatherDisplay:10.37,2013-11-30 22:29:00,
2013-11-30 16:34:00,49.2,28.7,30.44,SW,225,0.0,0.0,45,0.00,CLR,,0.00,WeatherDisplay:10.37,2013-11-30 22:34:00,
2013-11-30 16:39:00,48.6,29.8,30.44,SW,225,0.0,0.0,48,0.00,CLR,,0.00,WeatherDisplay:10.37,2013-11-30 22:39:00,
2013-11-30 16:44:00,47.9,30.1,30.44,SW,225,0.0,0.0,50,0.00,CLR,,0.00,WeatherDisplay:10.37,2013-11-30 22:44:00,
2013-11-30 16:49:00,47.1,29.9,30.44,SW,225,0.0,0.0,51,0.00,CLR,,0.00,WeatherDisplay:10.37,2013-11-30 22:49:00,
2013-11-30 16:54:00,46.5,30.7,30.44,SW,225,0.0,0.0,54,0.00,CLR,,0.00,WeatherDisplay:10.37,2013-11-30 22:54:00,
2013-11-30 16:59:00,45.8,31.0,30.44,SW,225,0.0,0.0,56,0.00,CLR,,0.00,WeatherDisplay:10.37,2013-11-30 22:59:00,
2013-11-30 17:04:00,45.2,30.9,30.44,SW,225,0.0,0.0,57,0.00,CLR,,0.00,WeatherDisplay:10.37,2013-11-30 23:04:00,
2013-11-30 17:09:00,44.8,30.9,30.44,SW,225,0.0,0.0,58,0.00,CLR,,0.00,WeatherDisplay:10.37,2013-11-30 23:09:00,
2013-11-30 17:14:00,44.2,30.8,30.45,SW,225,0.0,0.0,59,0.00,CLR,,0.00,WeatherDisplay:10.37,2013-11-30 23:14:00,
2013-11-30 17:19:00,43.6,30.6,30.45,SW,225,0.0,0.0,60,0.00,CLR,,0.00,WeatherDisplay:10.37,2013-11-30 23:19:00,
2013-11-30 17:24:00,43.1,31.4,30.45,SW,225,0.0,0.0,63,0.00,CLR,,0.00,WeatherDisplay:10.37,2013-11-30 23:24:00,
2013-11-30 17:29:00,42.6,30.5,30.45,SW,225,0.0,0.0,62,0.00,CLR,,0.00,WeatherDisplay:10.37,2013-11-30 23:29:00,
2013-11-30 17:34:00,42.2,30.5,30.45,SW,225,0.0,0.0,63,0.00,CLR,,0.00,WeatherDisplay:10.37,2013-11-30 23:34:00,
2013-11-30 17:39:00,41.8,30.5,30.45,SW,225,0.0,0.0,64,0.00,CLR,,0.00,WeatherDisplay:10.37,2013-11-30 23:39:00,
2013-11-30 17:44:00,41.5,30.6,30.45,SW,225,0.0,0.0,65,0.00,CLR,,0.00,WeatherDisplay:10.37,2013-11-30 23:44:00,
2013-11-30 17:49:00,41.1,30.6,30.45,SW,225,0.0,0.0,66,0.00,CLR,,0.00,WeatherDisplay:10.37,2013-11-30 23:49:00,
2013-11-30 17:54:00,40.8,30.7,30.45,SW,225,0.0,0.0,67,0.00,CLR,,0.00,WeatherDisplay:10.37,2013-11-30 23:54:00,
2013-11-30 17:59:00,40.5,30.4,30.45,SW,225,0.0,0.0,67,0.00,CLR,,0.00,WeatherDisplay:10.37,2013-11-30 23:59:00,
2013-11-30 18:04:00,40.3,30.2,30.45,SW,225,0.0,0.0,67,0.00,CLR,,0.00,WeatherDisplay:10.37,2013-12-01 00:04:00,
2013-11-30 18:09:00,40.1,30.4,30.45,SW,225,0.0,0.0,68,0.00,CLR,,0.00,WeatherDisplay:10.37,2013-12-01 00:09:00,
2013-11-30 18:14:00,39.8,30.5,30.45,SW,225,0.0,0.0,69,0.00,CLR,,0.00,WeatherDisplay:10.37,2013-12-01 00:14:00,
2013-11-30 18:19:00,39.6,30.3,30.45,SW,225,0.0,0.0,69,0.00,CLR,,0.00,WeatherDisplay:10.37,2013-12-01 00:19:00,
2013-11-30 18:24:00,39.3,30.3,30.45,SW,225,0.0,0.0,70,0.00,CLR,,0.00,WeatherDisplay:10.37,2013-12-01 00:24:00,
2013-11-30 18:29:00,39.1,30.5,30.45,SW,225,0.0,0.0,71,0.00,CLR,,0.00,WeatherDisplay:10.37,2013-12-01 00:29:00,
2013-11-30 18:34:00,38.8,30.2,30.45,SW,225,0.0,0.0,71,0.00,CLR,,0.00,WeatherDisplay:10.37,2013-12-01 00:34:00,
2013-11-30 18:39:00,38.5,30.3,30.45,SW,225,0.0,0.0,72,0.00,CLR,,0.00,WeatherDisplay:10.37,2013-12-01 00:39:00,
2013-11-30 18:44:00,38.3,30.4,30.45,SW,225,0.0,0.0,73,0.00,CLR,,0.00,WeatherDisplay:10.37,2013-12-01 00:44:00,
2013-11-30 18:49:00,38.0,30.4,30.45,SW,225,0.0,0.0,74,0.00,CLR,,0.00,WeatherDisplay:10.37,2013-12-01 00:49:00,
2013-11-30 18:54:00,37.9,30.4,30.45,SW,225,0.0,0.0,74,0.00,CLR,,0.00,WeatherDisplay:10.37,2013-12-01 00:54:00,
2013-11-30 18:59:00,37.6,30.4,30.46,SW,225,0.0,0.0,75,0.00,CLR,,0.00,WeatherDisplay:10.37,2013-12-01 00:59:00,
2013-11-30 19:04:00,37.5,30.3,30.45,SW,225,0.0,0.0,75,0.00,CLR,,0.00,WeatherDisplay:10.37,2013-12-01 01:04:00,
2013-11-30 19:09:00,37.3,30.4,30.45,SW,225,0.0,0.0,76,0.00,CLR,,0.00,WeatherDisplay:10.37,2013-12-01 01:09:00,
2013-11-30 19:14:00,37.0,30.1,30.45,SW,225,0.0,0.0,76,0.00,CLR,,0.00,WeatherDisplay:10.37,2013-12-01 01:14:00,
2013-11-30 19:19:00,36.9,30.0,30.45,SW,225,0.0,0.0,76,0.00,CLR,,0.00,WeatherDisplay:10.37,2013-12-01 01:19:00,
2013-11-30 19:24:00,36.8,30.3,30.45,SW,225,0.0,0.0,77,0.00,CLR,,0.00,WeatherDisplay:10.37,2013-12-01 01:24:00,
2013-11-30 19:29:00,36.5,30.0,30.45,SW,225,0.0,0.0,77,0.00,CLR,,0.00,WeatherDisplay:10.37,2013-12-01 01:29:00,
2013-11-30 19:34:00,36.3,30.1,30.45,SW,225,0.0,0.0,78,0.00,CLR,,0.00,WeatherDisplay:10.37,2013-12-01 01:34:00,
2013-11-30 19:39:00,36.2,30.0,30.45,SW,225,0.0,0.0,78,0.00,CLR,,0.00,WeatherDisplay:10.37,2013-12-01 01:39:00,
2013-11-30 19:44:00,36.2,30.0,30.45,SW,225,0.0,0.0,78,0.00,CLR,,0.00,WeatherDisplay:10.37,2013-12-01 01:44:00,
2013-11-30 19:49:00,36.0,30.1,30.45,SW,225,0.0,0.0,79,0.00,CLR,,0.00,WeatherDisplay:10.37,2013-12-01 01:49:00,
2013-11-30 19:54:00,35.9,30.0,30.45,SW,225,0.0,0.0,79,0.00,CLR,,0.00,WeatherDisplay:10.37,2013-12-01 01:54:00,
2013-11-30 19:59:00,35.9,30.3,30.45,SW,225,1.2,1.2,80,0.00,CLR,,0.00,WeatherDisplay:10.37,2013-12-01 01:59:00,
2013-11-30 20:04:00,35.8,30.2,30.45,SW,225,0.0,0.0,80,0.00,CLR,,0.00,WeatherDisplay:10.37,2013-12-01 02:04:00,
2013-11-30 20:09:00,35.8,30.2,30.44,SW,225,0.0,0.0,80,0.00,CLR,,0.00,WeatherDisplay:10.37,2013-12-01 02:09:00,
2013-11-30 20:14:00,35.6,30.0,30.44,SW,225,0.0,0.0,80,0.00,CLR,,0.00,WeatherDisplay:10.37,2013-12-01 02:14:00,
2013-11-30 20:19:00,35.5,29.9,30.44,SW,225,0.0,0.0,80,0.00,CLR,,0.00,WeatherDisplay:10.37,2013-12-01 02:19:00,
2013-11-30 20:24:00,35.3,29.7,30.44,SW,225,0.0,0.0,80,0.00,CLR,,0.00,WeatherDisplay:10.37,2013-12-01 02:24:00,
2013-11-30 20:29:00,35.2,29.6,30.44,SW,225,0.0,0.0,80,0.00,CLR,,0.00,WeatherDisplay:10.37,2013-12-01 02:29:00,
2013-11-30 20:34:00,35.0,29.8,30.43,SW,225,0.0,0.0,81,0.00,CLR,,0.00,WeatherDisplay:10.37,2013-12-01 02:34:00,
2013-11-30 20:39:00,34.7,29.5,30.43,SW,225,0.0,0.0,81,0.00,CLR,,0.00,WeatherDisplay:10.37,2013-12-01 02:39:00,
2013-11-30 20:44:00,34.6,29.4,30.44,SW,225,0.0,0.0,81,0.00,CLR,,0.00,WeatherDisplay:10.37,2013-12-01 02:44:00,
2013-11-30 20:49:00,34.4,29.5,30.44,SW,225,0.0,0.0,82,0.00,CLR,,0.00,WeatherDisplay:10.37,2013-12-01 02:49:00,
2013-11-30 20:54:00,34.3,29.4,30.44,SW,225,0.0,0.0,82,0.00,CLR,,0.00,WeatherDisplay:10.37,2013-12-01 02:54:00,
2013-11-30 20:59:00,34.1,29.5,30.44,SW,225,0.0,0.0,83,0.00,CLR,,0.00,WeatherDisplay:10.37,2013-12-01 02:59:00,
2013-11-30 21:04:00,34.1,29.5,30.44,SW,225,0.0,0.0,83,0.00,CLR,,0.00,WeatherDisplay:10.37,2013-12-01 03:04:00,
2013-11-30 21:09:00,34.0,29.4,30.43,SW,225,0.0,0.0,83,0.00,CLR,,0.00,WeatherDisplay:10.37,2013-12-01 03:09:00,
2013-11-30 21:14:00,33.7,29.1,30.43,SW,225,0.0,0.0,83,0.00,CLR,,0.00,WeatherDisplay:10.37,2013-12-01 03:14:00,
2013-11-30 21:19:00,33.5,28.9,30.43,SW,225,0.0,0.0,83,0.00,CLR,,0.00,WeatherDisplay:10.37,2013-12-01 03:19:00,
2013-11-30 21:24:00,33.5,29.2,30.43,SW,225,0.0,0.0,84,0.00,CLR,,0.00,WeatherDisplay:10.37,2013-12-01 03:24:00,
2013-11-30 21:29:00,33.4,29.1,30.43,SW,225,0.0,0.0,84,0.00,CLR,,0.00,WeatherDisplay:10.37,2013-12-01 03:29:00,
2013-11-30 21:34:00,33.2,28.9,30.43,SW,225,0.0,0.0,84,0.00,CLR,,0.00,WeatherDisplay:10.37,2013-12-01 03:34:00,
2013-11-30 21:39:00,33.1,28.8,30.43,SW,225,0.0,0.0,84,0.00,CLR,,0.00,WeatherDisplay:10.37,2013-12-01 03:39:00,
2013-11-30 21:44:00,33.1,29.1,30.43,SW,225,0.0,0.0,85,0.00,CLR,,0.00,WeatherDisplay:10.37,2013-12-01 03:44:00,
2013-11-30 21:49:00,32.9,28.9,30.43,SW,225,0.0,0.0,85,0.00,CLR,,0.00,WeatherDisplay:10.37,2013-12-01 03:49:00,
2013-11-30 21:54:00,32.9,28.9,30.43,SW,225,0.0,0.0,85,0.00,CLR,,0.00,WeatherDisplay:10.37,2013-12-01 03:54:00,
2013-11-30 21:59:00,32.9,28.9,30.43,SW,225,0.0,0.0,85,0.00,CLR,,0.00,WeatherDisplay:10.37,2013-12-01 03:59:00,
2013-11-30 22:04:00,32.8,28.8,30.43,SW,225,0.0,0.0,85,0.00,CLR,,0.00,WeatherDisplay:10.37,2013-12-01 04:04:00,
2013-11-30 22:09:00,32.7,28.7,30.42,SW,225,0.0,0.0,85,0.00,CLR,,0.00,WeatherDisplay:10.37,2013-12-01 04:09:00,
2013-11-30 22:14:00,32.7,29.0,30.42,SW,225,0.0,0.0,86,0.00,CLR,,0.00,WeatherDisplay:10.37,2013-12-01 04:14:00,
2013-11-30 22:19:00,32.5,28.8,30.42,SW,225,0.0,0.0,86,0.00,CLR,,0.00,WeatherDisplay:10.37,2013-12-01 04:19:00,
2013-11-30 22:24:00,32.5,29.1,30.42,SW,225,0.0,0.0,87,0.00,CLR,,0.00,WeatherDisplay:10.37,2013-12-01 04:24:00,
2013-11-30 22:29:00,32.5,29.1,30.42,SW,225,0.0,0.0,87,0.00,CLR,,0.00,WeatherDisplay:10.37,2013-12-01 04:29:00,
2013-11-30 22:34:00,32.5,29.1,30.42,SW,225,0.0,0.0,87,0.00,CLR,,0.00,WeatherDisplay:10.37,2013-12-01 04:34:00,
2013-11-30 22:39:00,32.5,29.1,30.42,SW,225,0.0,0.0,87,0.00,CLR,,0.00,WeatherDisplay:10.37,2013-12-01 04:39:00,
2013-11-30 22:44:00,32.5,29.1,30.42,SW,225,0.0,0.0,87,0.00,CLR,,0.00,WeatherDisplay:10.37,2013-12-01 04:44:00,
2013-11-30 22:49:00,32.4,29.2,30.42,SW,225,0.0,0.0,88,0.00,CLR,,0.00,WeatherDisplay:10.37,2013-12-01 04:49:00,
2013-11-30 22:54:00,32.4,29.2,30.42,SW,225,0.0,0.0,88,0.00,CLR,,0.00,WeatherDisplay:10.37,2013-12-01 04:54:00,
2013-11-30 22:59:00,32.2,29.0,30.42,SW,225,0.0,0.0,88,0.00,CLR,,0.00,WeatherDisplay:10.37,2013-12-01 04:59:00,
2013-11-30 23:01:00,32.2,29.0,30.42,SW,225,0.0,0.0,88,0.00,CLR,,0.00,WeatherDisplay:10.37,2013-12-01 05:01:00,
2013-11-30 23:02:00,32.2,29.0,30.42,SW,225,0.0,0.0,88,0.00,CLR,,0.00,WeatherDisplay:10.37,2013-12-01 05:02:00,
2013-11-30 23:03:00,32.2,29.0,30.42,SW,225,0.0,0.0,88,0.00,CLR,,0.00,WeatherDisplay:10.37,2013-12-01 05:03:00,
2013-11-30 23:04:00,32.2,29.0,30.42,SW,225,0.0,0.0,88,0.00,CLR,,0.00,WeatherDisplay:10.37,2013-12-01 05:04:00,
2013-11-30 23:09:00,32.4,29.5,30.42,SW,225,0.0,0.0,89,0.00,CLR,,0.00,WeatherDisplay:10.37,2013-12-01 05:09:00,
2013-11-30 23:14:00,32.4,29.5,30.42,SW,225,0.0,0.0,89,0.00,CLR,,0.00,WeatherDisplay:10.37,2013-12-01 05:14:00,
2013-11-30 23:19:00,32.2,29.0,30.42,SW,225,0.0,0.0,88,0.00,CLR,,0.00,WeatherDisplay:10.37,2013-12-01 05:19:00,
2013-11-30 23:24:00,32.1,28.9,30.42,SW,225,0.0,0.0,88,0.00,CLR,,0.00,WeatherDisplay:10.37,2013-12-01 05:24:00,
2013-11-30 23:29:00,31.9,28.8,30.42,SW,225,0.0,0.0,88,0.00,CLR,,0.00,WeatherDisplay:10.37,2013-12-01 05:29:00,
2013-11-30 23:34:00,31.8,28.9,30.42,SW,225,0.0,0.0,89,0.00,CLR,,0.00,WeatherDisplay:10.37,2013-12-01 05:34:00,
2013-11-30 23:39:00,31.8,28.9,30.42,SW,225,0.0,0.0,89,0.00,CLR,,0.00,WeatherDisplay:10.37,2013-12-01 05:39:00,
2013-11-30 23:44:00,31.6,28.7,30.42,SW,225,0.0,0.0,89,0.00,CLR,,0.00,WeatherDisplay:10.37,2013-12-01 05:44:00,
2013-11-30 23:49:00,31.6,28.7,30.42,SW,225,0.0,0.0,89,0.00,CLR,,0.00,WeatherDisplay:10.37,2013-12-01 05:49:00,
2013-11-30 23:54:00,31.5,28.6,30.42,SW,225,0.0,0.0,89,0.00,CLR,,0.00,WeatherDisplay:10.37,2013-12-01 05:54:00,
2013-11-30 23:59:00,31.3,28.4,30.42,SW,225,0.0,0.0,89,0.00,CLR,,0.00,WeatherDisplay:10.37,2013-12-01 05:59:00,